Marquette, MI

11:06 PM EDT on May 25, 2015 (GMT -0400)
South Marquette | | Change Station
CLOSE
Current Station
Personal Weather Station
Location: Marquette, MI
Elevation: 843 ft
Nearby Weather Stations

Elev 843 ft 46.53 °N, 87.42 °W | Updated 39 seconds ago

Partly Cloudy
Partly Cloudy
56.2 °F
Feels Like 56.2 °F
N
0.0
Wind Variable Wind from SW
Gusts 0.0 mph

Today
High -- | Low -- °F
--% Chance of Precip.
Yesterday
High -- | Low -- °F
Precip. -- in
6:05 AM 9:28 PM
First Quarter, 54% visible
Pressure 29.78 in
Visibility 10.0 miles
Clouds Clear
Dew Point 54 °F
Humidity 92%
Rainfall 1.26 in
Snow Depth Not available.
UV 0 out of 12
Pollen .90 out of 12
Air Quality Not available.
Flu Activity Sporadic
METAR KSAW 260257Z AUTO 21005KT 10SM CLR 17/15 A2978 RMK AO2 T01650150

More Conditions Fewer Conditions

Pressure 29.78 in
Visibility 10.0 miles
Clouds Clear
Dew Point 54 °F
Humidity 92%
Rainfall 1.26 in
Snow Depth Not available.
UV 0 out of 12
Pollen .90 out of 12
Air Quality Not available.
Flu Activity Sporadic
METAR KSAW 260257Z AUTO 21005KT 10SM CLR 17/15 A2978 RMK AO2 T01650150

More Conditions Fewer Conditions

10-Day Weather Forecast

Almanac

Astronomy

May. 25, 2015 Rise Set
Actual Time
Civil Twilight
Nautical Twilight
Astronomical Twilight
Moon
Length of Visible Light
Length of Day
Tomorrow will be .
, % of the Moon is Illuminated

Today's Extremes

State Highs State Lows

Community

WunderPhotos

Upload Photos

1,824,245 photos uploaded!

WunderBlogs® & News

Nearby

Air Quality

  Air Quality AQ Index Pollutant
Not available.

Snow Depth

Station Depth Elevation

Earthquake Activity

City Distance Mag. Time & Date
Minimum magnitude displayed is 2.5.

Coastal Water Temperatures

Place Temperature

Stations

Nearby Weather Stations

Station Location Temp. Windchill Dew Point Humidity Wind Precip. Elev Updated Type